createdAt,value
2019-03-17T00:00:02.907Z,0
2019-03-17T00:00:43.477Z,0
2019-03-17T00:01:24.066Z,0
2019-03-17T00:02:04.647Z,0
2019-03-17T00:02:45.202Z,0
2019-03-17T00:03:25.772Z,0
2019-03-17T00:04:06.346Z,0
2019-03-17T00:04:46.913Z,0
2019-03-17T00:05:27.479Z,0
2019-03-17T00:06:08.032Z,0
2019-03-17T00:06:48.593Z,0
2019-03-17T00:07:29.148Z,0
2019-03-17T00:08:09.728Z,0
2019-03-17T00:08:50.297Z,0
2019-03-17T00:09:30.861Z,0
2019-03-17T00:10:11.433Z,0
2019-03-17T00:10:52.715Z,0
2019-03-17T00:11:32.606Z,0
2019-03-17T00:12:13.170Z,0
2019-03-17T00:12:53.766Z,0
2019-03-17T00:13:34.319Z,0
2019-03-17T00:14:14.879Z,0
2019-03-17T00:15:04.477Z,0
2019-03-17T00:15:36.001Z,0
2019-03-17T00:16:16.560Z,0
2019-03-17T00:16:57.110Z,0
2019-03-17T00:17:37.685Z,0
2019-03-17T00:18:18.310Z,0
2019-03-17T00:18:58.809Z,0
2019-03-17T00:19:39.410Z,0
2019-03-17T00:20:19.963Z,0
2019-03-17T00:21:00.532Z,0
2019-03-17T00:21:41.104Z,0
2019-03-17T00:22:21.699Z,0
2019-03-17T00:23:02.268Z,0
2019-03-17T00:23:42.829Z,0
2019-03-17T00:24:23.386Z,0
2019-03-17T00:25:08.820Z,0
2019-03-17T00:25:44.713Z,0
2019-03-17T00:26:25.273Z,0
2019-03-17T00:27:05.850Z,0
2019-03-17T00:27:46.417Z,0
2019-03-17T00:28:26.972Z,0
2019-03-17T00:29:07.551Z,0
2019-03-17T00:29:48.130Z,0
2019-03-17T00:30:28.681Z,0
2019-03-17T00:31:09.243Z,0
2019-03-17T00:31:49.797Z,0
2019-03-17T00:32:30.399Z,0
2019-03-17T00:33:10.943Z,0
2019-03-17T00:33:51.502Z,0
2019-03-17T00:34:43.455Z,0
2019-03-17T00:35:12.626Z,0
2019-03-17T00:35:53.203Z,0
2019-03-17T00:36:33.772Z,0
2019-03-17T00:37:14.339Z,0
2019-03-17T00:37:54.937Z,0
2019-03-17T00:38:35.493Z,0
2019-03-17T00:39:16.065Z,0
2019-03-17T00:39:56.626Z,0
2019-03-17T00:40:37.228Z,0
2019-03-17T00:41:17.798Z,0
2019-03-17T00:41:58.348Z,0
2019-03-17T00:42:38.916Z,0
2019-03-17T00:43:19.482Z,0
2019-03-17T00:44:00.038Z,0
2019-03-17T00:44:40.610Z,0
2019-03-17T00:45:21.161Z,0
2019-03-17T00:46:01.753Z,0
2019-03-17T00:46:42.303Z,0
2019-03-17T00:47:22.872Z,0
2019-03-17T00:48:03.457Z,0
2019-03-17T00:48:44.014Z,0
2019-03-17T00:49:24.599Z,0
2019-03-17T00:50:05.169Z,0
2019-03-17T00:50:45.742Z,0
2019-03-17T00:51:26.298Z,0
2019-03-17T00:52:06.876Z,0
2019-03-17T00:52:47.435Z,0
2019-03-17T00:53:28.013Z,0
2019-03-17T00:54:08.561Z,0
2019-03-17T00:54:49.132Z,0
2019-03-17T00:55:29.692Z,0
2019-03-17T00:56:10.293Z,0
2019-03-17T00:56:50.860Z,0
2019-03-17T00:57:31.422Z,0
2019-03-17T00:58:11.999Z,0
2019-03-17T00:58:52.566Z,0
2019-03-17T00:59:33.145Z,0
2019-03-17T01:00:13.687Z,0
2019-03-17T01:00:54.284Z,0
2019-03-17T01:01:34.855Z,0
2019-03-17T01:02:15.431Z,0
2019-03-17T01:02:55.993Z,0
2019-03-17T01:03:36.563Z,0
2019-03-17T01:04:17.119Z,0
2019-03-17T01:04:57.681Z,0
2019-03-17T01:05:38.245Z,0
2019-03-17T01:06:18.798Z,0
2019-03-17T01:06:59.362Z,0
2019-03-17T01:07:39.922Z,0
2019-03-17T01:08:20.508Z,0
2019-03-17T01:09:01.056Z,0
2019-03-17T01:09:41.636Z,0
2019-03-17T01:10:22.199Z,0
2019-03-17T01:11:02.771Z,0
2019-03-17T01:11:43.324Z,0
2019-03-17T01:12:23.894Z,0
2019-03-17T01:13:04.434Z,0
2019-03-17T01:13:45.010Z,0
2019-03-17T01:14:25.578Z,0
2019-03-17T01:15:06.148Z,0
2019-03-17T01:15:46.691Z,0
2019-03-17T01:16:27.319Z,0
2019-03-17T01:17:07.894Z,0
2019-03-17T01:17:48.442Z,0
2019-03-17T01:18:29.014Z,0
2019-03-17T01:19:09.583Z,0
2019-03-17T01:19:50.142Z,0
2019-03-17T01:20:30.703Z,0
2019-03-17T01:21:11.269Z,0
2019-03-17T01:21:51.848Z,0
2019-03-17T01:22:32.401Z,0
2019-03-17T01:23:12.979Z,0
2019-03-17T01:23:53.543Z,0
2019-03-17T01:24:34.119Z,0
2019-03-17T01:25:14.688Z,0
2019-03-17T01:25:55.233Z,0
2019-03-17T01:26:35.817Z,0
2019-03-17T01:27:16.398Z,0
2019-03-17T01:27:56.995Z,0
2019-03-17T01:28:37.544Z,0
2019-03-17T01:29:18.093Z,0
2019-03-17T01:29:58.666Z,0
2019-03-17T01:30:39.260Z,0
2019-03-17T01:31:19.828Z,0
2019-03-17T01:32:00.380Z,0
2019-03-17T01:32:40.923Z,0
2019-03-17T01:33:21.592Z,0
2019-03-17T01:34:02.081Z,0
2019-03-17T01:34:42.631Z,0
2019-03-17T01:35:23.195Z,0
2019-03-17T01:36:03.765Z,0
2019-03-17T01:36:44.346Z,0
2019-03-17T01:37:24.907Z,0
2019-03-17T01:38:05.465Z,0
2019-03-17T01:38:46.010Z,0
2019-03-17T01:39:26.624Z,0
2019-03-17T01:40:07.181Z,0
2019-03-17T01:40:47.732Z,0
2019-03-17T01:41:28.289Z,0
2019-03-17T01:42:08.874Z,0
2019-03-17T01:42:49.414Z,0
2019-03-17T01:43:29.980Z,0
2019-03-17T01:44:10.528Z,0
2019-03-17T01:44:51.099Z,0
2019-03-17T01:45:31.653Z,0
2019-03-17T01:46:12.237Z,0
2019-03-17T01:46:52.788Z,0
2019-03-17T01:47:33.355Z,0
2019-03-17T01:48:13.928Z,0
2019-03-17T01:48:54.483Z,0
2019-03-17T01:49:35.057Z,0
2019-03-17T01:50:15.615Z,0
2019-03-17T01:50:56.161Z,0
2019-03-17T01:51:36.725Z,0
2019-03-17T01:52:17.299Z,0
2019-03-17T01:52:57.874Z,0
2019-03-17T01:53:38.442Z,0
2019-03-17T01:54:19.011Z,0
2019-03-17T01:54:59.571Z,0
2019-03-17T01:55:40.139Z,0
2019-03-17T01:56:20.699Z,0
2019-03-17T01:57:01.259Z,0
2019-03-17T01:57:41.826Z,0
2019-03-17T01:58:22.406Z,0
2019-03-17T01:59:02.963Z,0
2019-03-17T01:59:43.591Z,0
2019-03-17T02:00:24.107Z,0
2019-03-17T02:01:04.749Z,0
2019-03-17T02:01:45.322Z,0
2019-03-17T02:02:25.887Z,0
2019-03-17T02:03:06.451Z,0
2019-03-17T02:03:47.022Z,0
2019-03-17T02:04:27.590Z,0
2019-03-17T02:05:20.854Z,0
2019-03-17T02:05:48.772Z,0
2019-03-17T02:06:29.365Z,0
2019-03-17T02:07:09.922Z,0
2019-03-17T02:07:50.489Z,0
2019-03-17T02:08:31.074Z,0
2019-03-17T02:09:11.645Z,0
2019-03-17T02:09:52.217Z,0
2019-03-17T02:10:32.776Z,0
2019-03-17T02:11:13.335Z,0
2019-03-17T02:11:53.903Z,0
2019-03-17T02:12:34.500Z,0
2019-03-17T02:13:15.074Z,0
2019-03-17T02:13:55.622Z,0
2019-03-17T02:14:36.188Z,0
2019-03-17T02:15:16.785Z,0
2019-03-17T02:15:57.366Z,0
2019-03-17T02:16:37.927Z,0
2019-03-17T02:17:18.496Z,0
2019-03-17T02:17:59.070Z,0
2019-03-17T02:18:39.633Z,0
2019-03-17T02:19:20.199Z,0
2019-03-17T02:20:00.772Z,0
2019-03-17T02:20:41.324Z,0
2019-03-17T02:21:21.900Z,0
2019-03-17T02:22:02.473Z,0
2019-03-17T02:22:43.034Z,0
2019-03-17T02:23:23.590Z,0
2019-03-17T02:24:04.172Z,0
2019-03-17T02:24:44.732Z,0
2019-03-17T02:25:25.289Z,0
2019-03-17T02:26:05.842Z,0
2019-03-17T02:26:46.415Z,0
2019-03-17T02:27:26.967Z,0
2019-03-17T02:28:07.518Z,0
2019-03-17T02:28:48.082Z,0
2019-03-17T02:29:28.646Z,0
2019-03-17T02:30:09.212Z,0
2019-03-17T02:30:49.774Z,0
2019-03-17T02:31:30.345Z,0
2019-03-17T02:32:10.906Z,0
2019-03-17T02:32:51.516Z,0
2019-03-17T02:33:32.064Z,0
2019-03-17T02:34:12.643Z,0
2019-03-17T02:34:53.189Z,0
2019-03-17T02:35:39.191Z,0
2019-03-17T02:36:14.300Z,0
2019-03-17T02:36:54.941Z,0
2019-03-17T02:37:35.433Z,0
2019-03-17T02:38:16.006Z,0
2019-03-17T02:38:56.578Z,0
2019-03-17T02:39:37.118Z,0
2019-03-17T02:40:17.690Z,0
2019-03-17T02:40:58.244Z,0
2019-03-17T02:41:38.832Z,0
2019-03-17T02:42:19.389Z,0
2019-03-17T02:42:59.950Z,0
2019-03-17T02:43:40.522Z,0
2019-03-17T02:44:21.083Z,0
2019-03-17T02:45:01.679Z,0
2019-03-17T02:45:42.231Z,0
2019-03-17T02:46:22.788Z,0
2019-03-17T02:47:03.366Z,0
2019-03-17T02:47:43.914Z,0
2019-03-17T02:48:24.480Z,0
2019-03-17T02:49:05.056Z,0
2019-03-17T02:49:45.624Z,0
2019-03-17T02:50:26.186Z,0
2019-03-17T02:51:06.751Z,0
2019-03-17T02:51:47.334Z,0
2019-03-17T02:52:27.905Z,0
2019-03-17T02:53:08.473Z,0
2019-03-17T02:53:49.027Z,0
2019-03-17T02:54:29.578Z,0
2019-03-17T02:55:10.437Z,0
2019-03-17T02:55:50.976Z,0
2019-03-17T02:56:31.536Z,0
2019-03-17T02:57:12.074Z,0
2019-03-17T02:57:52.642Z,0
2019-03-17T02:58:33.185Z,0
2019-03-17T02:59:13.735Z,0
2019-03-17T02:59:54.313Z,0
2019-03-17T03:00:34.890Z,0
2019-03-17T03:01:15.457Z,0
2019-03-17T03:01:56.032Z,0
2019-03-17T03:02:36.600Z,0
2019-03-17T03:03:17.147Z,0
2019-03-17T03:03:57.710Z,0
2019-03-17T03:04:38.285Z,0
2019-03-17T03:05:18.850Z,0
2019-03-17T03:05:59.419Z,0
2019-03-17T03:06:39.976Z,0
2019-03-17T03:07:20.536Z,0
2019-03-17T03:08:01.100Z,0
2019-03-17T03:08:41.670Z,0
2019-03-17T03:09:22.235Z,0
2019-03-17T03:10:02.812Z,0
2019-03-17T03:10:43.401Z,0
2019-03-17T03:11:23.947Z,0
2019-03-17T03:12:04.519Z,0
2019-03-17T03:12:45.077Z,0
2019-03-17T03:13:25.650Z,0
2019-03-17T03:14:06.225Z,0
2019-03-17T03:14:46.774Z,0
2019-03-17T03:15:27.344Z,0
2019-03-17T03:16:07.907Z,0
2019-03-17T03:16:48.468Z,0
2019-03-17T03:17:29.042Z,0
2019-03-17T03:18:09.609Z,0
2019-03-17T03:18:50.144Z,0
2019-03-17T03:19:30.707Z,0
2019-03-17T03:20:11.282Z,0
2019-03-17T03:20:51.844Z,0
2019-03-17T03:21:32.392Z,0
2019-03-17T03:22:12.969Z,0
2019-03-17T03:22:53.526Z,0
2019-03-17T03:23:34.103Z,0
2019-03-17T03:24:14.661Z,0
2019-03-17T03:24:55.223Z,0
2019-03-17T03:25:35.788Z,0
2019-03-17T03:26:16.361Z,0
2019-03-17T03:26:56.933Z,0
2019-03-17T03:27:37.481Z,0
2019-03-17T03:28:18.037Z,0
2019-03-17T03:28:58.583Z,0
2019-03-17T03:29:39.136Z,0
2019-03-17T03:30:19.709Z,0
2019-03-17T03:31:00.314Z,0
2019-03-17T03:31:40.873Z,0
2019-03-17T03:32:21.453Z,0
2019-03-17T03:33:02.151Z,0
2019-03-17T03:33:42.549Z,0
2019-03-17T03:34:23.122Z,0
2019-03-17T03:35:03.678Z,0
2019-03-17T03:35:44.278Z,0
2019-03-17T03:36:24.802Z,0
2019-03-17T03:37:05.387Z,0
2019-03-17T03:37:45.974Z,0
2019-03-17T03:38:26.547Z,0
2019-03-17T03:39:07.078Z,0
2019-03-17T03:39:47.679Z,0
2019-03-17T03:40:28.191Z,0
2019-03-17T03:41:08.755Z,0
2019-03-17T03:41:49.321Z,0
2019-03-17T03:42:29.882Z,0
2019-03-17T03:43:10.465Z,0
2019-03-17T03:43:51.007Z,0
2019-03-17T03:44:31.574Z,0
2019-03-17T03:45:12.156Z,0
2019-03-17T03:45:52.691Z,0
2019-03-17T03:46:33.321Z,0
2019-03-17T03:47:13.852Z,0
2019-03-17T03:47:54.494Z,0
2019-03-17T03:48:34.954Z,0
2019-03-17T03:49:15.521Z,0
2019-03-17T03:49:57.251Z,0
2019-03-17T03:50:36.659Z,0
2019-03-17T03:51:17.213Z,0
2019-03-17T03:51:57.775Z,0
2019-03-17T03:52:38.380Z,0
2019-03-17T03:53:18.925Z,0
2019-03-17T03:53:59.504Z,0
2019-03-17T03:54:40.066Z,0
2019-03-17T03:55:20.636Z,0
2019-03-17T03:56:01.230Z,0
2019-03-17T03:56:41.804Z,0
2019-03-17T03:57:22.363Z,0
2019-03-17T03:58:02.955Z,0
2019-03-17T03:58:43.482Z,0
2019-03-17T03:59:24.041Z,0
2019-03-17T04:00:04.622Z,0
2019-03-17T04:00:45.181Z,0
2019-03-17T04:01:25.744Z,0
2019-03-17T04:02:06.322Z,0
2019-03-17T04:02:46.884Z,0
2019-03-17T04:03:27.444Z,0
2019-03-17T04:04:07.999Z,0
2019-03-17T04:04:48.554Z,0
2019-03-17T04:05:32.501Z,0
2019-03-17T04:06:25.113Z,0
2019-03-17T04:06:50.259Z,0
2019-03-17T04:07:30.805Z,0
2019-03-17T04:08:11.357Z,0
2019-03-17T04:08:51.924Z,0
2019-03-17T04:09:32.523Z,0
2019-03-17T04:10:13.056Z,0
2019-03-17T04:10:53.638Z,0
2019-03-17T04:11:34.192Z,0
2019-03-17T04:12:14.778Z,0
2019-03-17T04:12:55.361Z,0
2019-03-17T04:13:35.949Z,0
2019-03-17T04:14:16.500Z,0
2019-03-17T04:14:57.073Z,0
2019-03-17T04:15:37.622Z,0
2019-03-17T04:16:18.185Z,0
2019-03-17T04:16:58.762Z,0
2019-03-17T04:17:39.351Z,0
2019-03-17T04:18:19.893Z,0
2019-03-17T04:19:00.451Z,0
2019-03-17T04:19:41.001Z,0
2019-03-17T04:20:21.551Z,0
2019-03-17T04:21:02.110Z,0
2019-03-17T04:21:42.672Z,0
2019-03-17T04:22:23.225Z,0
2019-03-17T04:23:03.776Z,0
2019-03-17T04:23:44.341Z,0
2019-03-17T04:24:24.896Z,0
2019-03-17T04:25:05.454Z,0
2019-03-17T04:25:46.040Z,0
2019-03-17T04:26:26.576Z,0
2019-03-17T04:27:07.138Z,0
2019-03-17T04:27:47.689Z,0
2019-03-17T04:28:28.255Z,0
2019-03-17T04:29:08.816Z,0
2019-03-17T04:29:49.388Z,0
2019-03-17T04:30:29.955Z,0
2019-03-17T04:31:14.060Z,0
2019-03-17T04:31:51.082Z,0
2019-03-17T04:32:31.645Z,0
2019-03-17T04:33:12.261Z,0
2019-03-17T04:33:52.822Z,0
2019-03-17T04:34:33.398Z,0
2019-03-17T04:35:13.952Z,0
2019-03-17T04:35:54.525Z,0
2019-03-17T04:36:40.330Z,0
2019-03-17T04:37:15.648Z,0
2019-03-17T04:37:56.232Z,0
2019-03-17T04:38:36.825Z,0
2019-03-17T04:39:17.380Z,0
2019-03-17T04:39:57.955Z,0
2019-03-17T04:40:38.513Z,0
2019-03-17T04:41:19.092Z,0
2019-03-17T04:41:59.654Z,0
2019-03-17T04:42:40.214Z,0
2019-03-17T04:43:20.780Z,0
2019-03-17T04:44:01.346Z,0
2019-03-17T04:44:41.894Z,0
2019-03-17T04:45:22.462Z,0
2019-03-17T04:46:03.022Z,0
2019-03-17T04:46:43.575Z,0
2019-03-17T04:47:24.126Z,0
2019-03-17T04:48:04.722Z,0
2019-03-17T04:48:45.355Z,0
2019-03-17T04:49:25.863Z,0
2019-03-17T04:50:06.415Z,0
2019-03-17T04:50:46.970Z,0
2019-03-17T04:51:27.537Z,0
2019-03-17T04:52:08.098Z,0
2019-03-17T04:52:48.661Z,0
2019-03-17T04:53:29.226Z,4
2019-03-17T04:54:09.813Z,4
2019-03-17T04:54:50.860Z,4
2019-03-17T04:55:31.411Z,0
2019-03-17T04:56:11.979Z,0
2019-03-17T04:56:52.550Z,4
2019-03-17T04:57:33.135Z,4
2019-03-17T04:58:13.708Z,4
2019-03-17T04:58:54.259Z,4
2019-03-17T04:59:34.827Z,8
2019-03-17T05:00:15.400Z,4
2019-03-17T05:00:55.957Z,4
2019-03-17T05:01:36.517Z,8
2019-03-17T05:02:17.067Z,8
2019-03-17T05:02:57.629Z,8
2019-03-17T05:03:38.198Z,8
2019-03-17T05:04:18.759Z,8
2019-03-17T05:04:59.355Z,16
2019-03-17T05:05:39.895Z,12
2019-03-17T05:06:20.484Z,16
2019-03-17T05:07:01.048Z,20
2019-03-17T05:07:41.624Z,16
2019-03-17T05:08:22.204Z,20
2019-03-17T05:09:02.761Z,20
2019-03-17T05:09:43.329Z,24
2019-03-17T05:10:23.966Z,24
2019-03-17T05:11:04.544Z,24
2019-03-17T05:11:45.088Z,28
2019-03-17T05:12:25.661Z,28
2019-03-17T05:13:06.217Z,28
2019-03-17T05:13:46.781Z,28
2019-03-17T05:14:27.346Z,28
2019-03-17T05:15:07.925Z,28
2019-03-17T05:15:48.497Z,36
2019-03-17T05:16:29.102Z,36
2019-03-17T05:17:09.662Z,40
2019-03-17T05:17:50.212Z,40
2019-03-17T05:18:30.772Z,44
2019-03-17T05:19:11.340Z,48
2019-03-17T05:19:51.894Z,48
2019-03-17T05:20:32.455Z,52
2019-03-17T05:21:13.015Z,52
2019-03-17T05:21:53.578Z,56
2019-03-17T05:22:34.130Z,64
2019-03-17T05:23:14.702Z,64
2019-03-17T05:23:55.258Z,68
2019-03-17T05:24:35.817Z,64
2019-03-17T05:25:16.385Z,64
2019-03-17T05:25:56.954Z,64
2019-03-17T05:26:37.558Z,60
2019-03-17T05:27:18.117Z,64
2019-03-17T05:27:58.673Z,64
2019-03-17T05:28:39.240Z,68
2019-03-17T05:29:19.787Z,72
2019-03-17T05:30:00.412Z,76
2019-03-17T05:30:40.889Z,80
2019-03-17T05:31:21.444Z,84
2019-03-17T05:32:02.023Z,88
2019-03-17T05:32:42.603Z,88
2019-03-17T05:33:23.130Z,92
2019-03-17T05:34:03.701Z,100
2019-03-17T05:34:44.263Z,108
2019-03-17T05:35:24.854Z,116
2019-03-17T05:36:05.418Z,120
2019-03-17T05:36:45.970Z,128
2019-03-17T05:37:26.529Z,136
2019-03-17T05:38:07.102Z,132
2019-03-17T05:38:47.660Z,124
2019-03-17T05:39:28.214Z,120
2019-03-17T05:40:08.774Z,112
2019-03-17T05:40:49.363Z,112
2019-03-17T05:41:29.910Z,108
2019-03-17T05:42:10.468Z,108
2019-03-17T05:42:51.036Z,104
2019-03-17T05:43:31.593Z,100
2019-03-17T05:44:12.154Z,104
2019-03-17T05:44:52.853Z,104
2019-03-17T05:45:33.439Z,108
2019-03-17T05:46:13.998Z,112
2019-03-17T05:46:54.553Z,116
2019-03-17T05:47:35.137Z,116
2019-03-17T05:48:15.680Z,120
2019-03-17T05:48:56.236Z,124
2019-03-17T05:49:36.940Z,128
2019-03-17T05:50:17.517Z,132
2019-03-17T05:50:58.070Z,140
2019-03-17T05:51:38.651Z,144
2019-03-17T05:52:19.206Z,156
2019-03-17T05:52:59.773Z,164
2019-03-17T05:53:40.545Z,168
2019-03-17T05:54:20.924Z,180
2019-03-17T05:55:01.480Z,200
2019-03-17T05:55:42.053Z,212
2019-03-17T05:56:22.596Z,224
2019-03-17T05:57:03.173Z,248
2019-03-17T05:57:43.744Z,260
2019-03-17T05:58:24.316Z,284
2019-03-17T05:59:04.883Z,312
2019-03-17T05:59:45.445Z,324
2019-03-17T06:00:26.017Z,332
2019-03-17T06:01:06.571Z,348
2019-03-17T06:01:47.146Z,360
2019-03-17T06:02:27.708Z,368
2019-03-17T06:03:08.264Z,388
2019-03-17T06:03:48.849Z,412
2019-03-17T06:04:29.369Z,436
2019-03-17T06:05:09.939Z,464
2019-03-17T06:05:50.507Z,500
2019-03-17T06:06:31.084Z,536
2019-03-17T06:07:18.397Z,568
2019-03-17T06:07:52.248Z,588
2019-03-17T06:08:33.724Z,604
2019-03-17T06:09:13.397Z,616
2019-03-17T06:09:54.047Z,644
2019-03-17T06:10:34.557Z,692
2019-03-17T06:11:15.171Z,740
2019-03-17T06:11:55.726Z,788
2019-03-17T06:12:36.284Z,840
2019-03-17T06:13:16.856Z,896
2019-03-17T06:13:57.418Z,944
2019-03-17T06:14:38.121Z,1008
2019-03-17T06:15:18.684Z,1124
2019-03-17T06:15:59.239Z,1312
2019-03-17T06:16:39.812Z,1532
2019-03-17T06:17:20.372Z,1668
2019-03-17T06:18:00.923Z,1712
2019-03-17T06:18:41.472Z,1832
2019-03-17T06:19:22.041Z,2044
2019-03-17T06:20:02.625Z,2308
2019-03-17T06:20:43.192Z,2568
2019-03-17T06:21:23.758Z,2756
2019-03-17T06:22:04.332Z,2868
2019-03-17T06:22:44.893Z,2952
2019-03-17T06:23:25.452Z,2992
2019-03-17T06:24:06.050Z,2992
2019-03-17T06:24:46.706Z,2988
2019-03-17T06:25:27.263Z,2980
2019-03-17T06:26:08.066Z,2964
2019-03-17T06:26:48.798Z,2968
2019-03-17T06:27:29.615Z,3004
2019-03-17T06:28:10.258Z,3056
2019-03-17T06:28:51.104Z,3124
2019-03-17T06:29:31.988Z,3200
2019-03-17T06:30:12.732Z,3284
2019-03-17T06:30:53.585Z,3384
2019-03-17T06:31:35.461Z,3488
2019-03-17T06:32:16.264Z,3580
2019-03-17T06:32:57.076Z,3668
2019-03-17T06:33:38.160Z,3756
2019-03-17T06:34:18.955Z,3716
2019-03-17T06:34:59.780Z,3532
2019-03-17T06:35:40.493Z,3160
2019-03-17T06:36:21.255Z,2740
2019-03-17T06:37:01.890Z,2220
2019-03-17T06:37:42.527Z,1776
2019-03-17T06:38:23.178Z,1492
2019-03-17T06:39:03.785Z,1260
2019-03-17T06:39:44.472Z,1076
2019-03-17T06:40:25.118Z,984
2019-03-17T06:41:05.728Z,936
2019-03-17T06:41:46.367Z,908
2019-03-17T06:42:27.089Z,872
2019-03-17T06:43:07.776Z,840
2019-03-17T06:43:48.448Z,804
2019-03-17T06:44:29.232Z,784
2019-03-17T06:45:09.793Z,784
2019-03-17T06:45:50.417Z,792
2019-03-17T06:46:31.134Z,804
2019-03-17T06:47:11.964Z,812
2019-03-17T06:47:52.752Z,816
2019-03-17T06:48:33.334Z,844
2019-03-17T06:49:13.917Z,880
2019-03-17T06:49:54.511Z,916
2019-03-17T06:50:35.038Z,980
2019-03-17T06:51:15.611Z,1032
2019-03-17T06:51:56.175Z,1016
2019-03-17T06:52:36.731Z,1012
2019-03-17T06:53:17.304Z,1004
2019-03-17T06:53:57.872Z,996
2019-03-17T06:54:38.449Z,1024
2019-03-17T06:55:19.007Z,1056
2019-03-17T06:55:59.578Z,1100
2019-03-17T06:56:40.153Z,1168
2019-03-17T06:57:20.760Z,1244
2019-03-17T06:58:01.302Z,1340
2019-03-17T06:58:41.869Z,1412
2019-03-17T06:59:22.424Z,1420
2019-03-17T07:00:03.007Z,1444
2019-03-17T07:00:43.565Z,1508
2019-03-17T07:01:24.125Z,1584
2019-03-17T07:02:04.681Z,1668
2019-03-17T07:02:45.252Z,1684
2019-03-17T07:03:25.806Z,1656
2019-03-17T07:04:06.373Z,1608
2019-03-17T07:04:46.937Z,1536
2019-03-17T07:05:27.509Z,1504
2019-03-17T07:06:08.102Z,1480
2019-03-17T07:06:48.661Z,1520
2019-03-17T07:07:29.246Z,1656
2019-03-17T07:08:09.956Z,1744
2019-03-17T07:08:50.500Z,1932
2019-03-17T07:09:31.067Z,2060
2019-03-17T07:10:11.687Z,2212
2019-03-17T07:10:52.184Z,2440
2019-03-17T07:11:32.744Z,2776
2019-03-17T07:12:13.311Z,3376
2019-03-17T07:12:53.895Z,3616
2019-03-17T07:13:34.462Z,3536
2019-03-17T07:14:15.034Z,3404
2019-03-17T07:14:55.590Z,3508
2019-03-17T07:15:36.147Z,4128
2019-03-17T07:16:16.742Z,5088
2019-03-17T07:16:57.402Z,5224
2019-03-17T07:17:37.978Z,5012
2019-03-17T07:18:18.549Z,4900
2019-03-17T07:18:59.118Z,4692
2019-03-17T07:19:39.707Z,4740
2019-03-17T07:20:20.264Z,5204
2019-03-17T07:21:00.840Z,5700
2019-03-17T07:21:41.408Z,6280
2019-03-17T07:22:21.967Z,6828
2019-03-17T07:23:02.539Z,7192
2019-03-17T07:23:43.122Z,8204
2019-03-17T07:24:23.795Z,8392
2019-03-17T07:25:04.359Z,10220
2019-03-17T07:25:44.914Z,10704
2019-03-17T07:26:25.484Z,11452
2019-03-17T07:27:06.090Z,11092
2019-03-17T07:27:46.624Z,9484
2019-03-17T07:28:27.170Z,9760
2019-03-17T07:29:07.754Z,11664
2019-03-17T07:29:49.465Z,13116
2019-03-17T07:30:28.887Z,14728
2019-03-17T07:31:09.449Z,12984
2019-03-17T07:31:50.008Z,14368
2019-03-17T07:32:30.581Z,13468
2019-03-17T07:33:11.145Z,15024
2019-03-17T07:33:51.702Z,14520
2019-03-17T07:34:32.275Z,15552
2019-03-17T07:35:12.840Z,19040
2019-03-17T07:35:53.422Z,22464
2019-03-17T07:36:33.980Z,29184
2019-03-17T07:37:14.575Z,34016
2019-03-17T07:37:56.923Z,35936
2019-03-17T07:38:35.703Z,32032
2019-03-17T07:39:16.263Z,40736
2019-03-17T07:39:56.867Z,53056
2019-03-17T07:40:37.481Z,50880
2019-03-17T07:41:18.068Z,53184
2019-03-17T07:41:58.633Z,27040
2019-03-17T07:42:39.191Z,32192
2019-03-17T07:43:19.741Z,48576
2019-03-17T07:44:00.301Z,67712
2019-03-17T07:44:40.904Z,49056
2019-03-17T07:45:21.485Z,41216
2019-03-17T07:46:02.102Z,33472
2019-03-17T07:46:42.641Z,27872
2019-03-17T07:47:23.205Z,39328
2019-03-17T07:48:03.820Z,39488
2019-03-17T07:48:44.489Z,45056
2019-03-17T07:49:25.221Z,55936
2019-03-17T07:50:05.787Z,66144
2019-03-17T07:50:46.437Z,64224
2019-03-17T07:51:27.025Z,45824
2019-03-17T07:52:07.591Z,79968
2019-03-17T07:52:48.156Z,80896
2019-03-17T07:53:28.763Z,89952
2019-03-17T07:54:09.342Z,90880
2019-03-17T07:54:50.013Z,88928
2019-03-17T07:55:30.890Z,91680
2019-03-17T07:56:11.471Z,95872
2019-03-17T07:56:52.016Z,96928
2019-03-17T07:57:32.693Z,92064
2019-03-17T07:58:13.258Z,87840
2019-03-17T07:58:53.872Z,87392
2019-03-17T07:59:34.454Z,88608
2019-03-17T08:00:15.066Z,88800
2019-03-17T08:00:55.674Z,88576
2019-03-17T08:01:36.333Z,78400
2019-03-17T08:02:16.946Z,81728
2019-03-17T08:02:57.529Z,79744
2019-03-17T08:03:38.107Z,92288
2019-03-17T08:04:18.675Z,93504
2019-03-17T08:04:59.275Z,94240
2019-03-17T08:05:39.809Z,90944
2019-03-17T08:06:20.419Z,90336
2019-03-17T08:07:00.985Z,88224
2019-03-17T08:07:41.558Z,89152
2019-03-17T08:08:22.164Z,90720
2019-03-17T08:09:02.672Z,91520
2019-03-17T08:09:43.267Z,90592
2019-03-17T08:10:23.824Z,88288
2019-03-17T08:11:04.386Z,87040
2019-03-17T08:11:44.966Z,89152
2019-03-17T08:12:25.528Z,90400
2019-03-17T08:13:06.108Z,87680
2019-03-17T08:13:46.681Z,86944
2019-03-17T08:14:27.244Z,86112
2019-03-17T08:15:07.821Z,85888
2019-03-17T08:15:48.391Z,82688
2019-03-17T08:16:28.971Z,81536
2019-03-17T08:17:09.542Z,83296
2019-03-17T08:17:50.111Z,85152
2019-03-17T08:18:30.677Z,87296
2019-03-17T08:19:11.240Z,87072
2019-03-17T08:19:51.820Z,86048
2019-03-17T08:20:32.418Z,82656
2019-03-17T08:21:12.990Z,83456
2019-03-17T08:21:53.560Z,85792
2019-03-17T08:22:34.130Z,87296
2019-03-17T08:23:14.713Z,85856
2019-03-17T08:23:55.273Z,81920
2019-03-17T08:24:36.023Z,77920
2019-03-17T08:25:16.606Z,72704
2019-03-17T08:25:57.217Z,77248
2019-03-17T08:26:37.770Z,79424
2019-03-17T08:27:18.333Z,74272
2019-03-17T08:27:58.896Z,74304
2019-03-17T08:28:39.588Z,61056
2019-03-17T08:29:20.203Z,78656
2019-03-17T08:30:00.771Z,71904
2019-03-17T08:30:52.340Z,61184
2019-03-17T08:31:21.973Z,62400
2019-03-17T08:32:02.574Z,61792
2019-03-17T08:32:43.145Z,57696
2019-03-17T08:33:23.707Z,32512
2019-03-17T08:34:04.325Z,53280
2019-03-17T08:34:45.018Z,50560
2019-03-17T08:35:25.676Z,45312
2019-03-17T08:36:06.294Z,37056
2019-03-17T08:36:46.842Z,34272
2019-03-17T08:37:27.408Z,28128
2019-03-17T08:38:07.986Z,28448
2019-03-17T08:38:48.533Z,24960
2019-03-17T08:39:29.107Z,23616
2019-03-17T08:40:09.709Z,17088
2019-03-17T08:40:50.335Z,13344
2019-03-17T08:41:30.902Z,13556
2019-03-17T08:42:12.167Z,13640
2019-03-17T08:42:52.731Z,10436
2019-03-17T08:43:33.289Z,9008
2019-03-17T08:44:13.865Z,9236
2019-03-17T08:44:54.423Z,8784
2019-03-17T08:45:35.007Z,10496
2019-03-17T08:46:15.574Z,10876
2019-03-17T08:46:56.254Z,10556
2019-03-17T08:47:36.818Z,9412
2019-03-17T08:48:17.387Z,8924
2019-03-17T08:48:58.238Z,9532
2019-03-17T08:49:38.806Z,9628
2019-03-17T08:50:19.761Z,7988
2019-03-17T08:51:00.530Z,7596
2019-03-17T08:51:41.170Z,11592
2019-03-17T08:52:21.920Z,9428
2019-03-17T08:53:02.477Z,9396
2019-03-17T08:53:43.052Z,9672
2019-03-17T08:54:23.618Z,10768
2019-03-17T08:55:04.183Z,10576
2019-03-17T08:55:44.749Z,10740
2019-03-17T08:56:25.432Z,11228
2019-03-17T08:57:05.971Z,10416
2019-03-17T08:57:46.531Z,10356
2019-03-17T08:58:27.110Z,11068
2019-03-17T08:59:07.662Z,13084
2019-03-17T08:59:48.298Z,14776
2019-03-17T09:00:28.903Z,15772
2019-03-17T09:01:09.489Z,15520
2019-03-17T09:01:50.046Z,11716
2019-03-17T09:02:30.648Z,9676
2019-03-17T09:03:11.225Z,9796
2019-03-17T09:03:51.827Z,10560
2019-03-17T09:04:32.421Z,11276
2019-03-17T09:05:13.000Z,11152
2019-03-17T09:05:53.585Z,10920
2019-03-17T09:06:34.176Z,11880
2019-03-17T09:07:14.758Z,11948
2019-03-17T09:07:55.366Z,8996
2019-03-17T09:08:35.955Z,10132
2019-03-17T09:09:16.551Z,10592
2019-03-17T09:09:57.149Z,10288
2019-03-17T09:10:37.820Z,9904
2019-03-17T09:11:18.417Z,8656
2019-03-17T09:11:59.024Z,8812
2019-03-17T09:12:39.620Z,10800
2019-03-17T09:13:20.198Z,9996
2019-03-17T09:14:00.756Z,8724
2019-03-17T09:14:41.332Z,8008
2019-03-17T09:15:21.892Z,7488
2019-03-17T09:16:02.465Z,7176
2019-03-17T09:16:43.080Z,6996
2019-03-17T09:17:23.708Z,6836
2019-03-17T09:18:04.256Z,6744
2019-03-17T09:18:44.880Z,6608
2019-03-17T09:19:25.594Z,6484
2019-03-17T09:20:06.165Z,6416
2019-03-17T09:20:46.737Z,6452
2019-03-17T09:21:27.333Z,6412
2019-03-17T09:22:07.960Z,6468
2019-03-17T09:22:48.575Z,5156
2019-03-17T09:23:29.187Z,6224
2019-03-17T09:24:16.867Z,6100
2019-03-17T09:24:51.524Z,5996
2019-03-17T09:25:32.088Z,6004
2019-03-17T09:26:12.698Z,5864
2019-03-17T09:26:53.276Z,5796
2019-03-17T09:27:33.983Z,5688
2019-03-17T09:28:14.527Z,5716
2019-03-17T09:28:55.112Z,5608
2019-03-17T09:29:35.675Z,5620
2019-03-17T09:30:16.310Z,5396
2019-03-17T09:30:56.914Z,5296